Terminal Aerodrome Forecast
Issued by NWS

Home | Current Version | Previous Version | Text Only | Print | Product List | Glossary On
Versions: 1 2 3 4 5 6 7 8 9 10 11 12 13 14 15 16 17 18 19 20 21 22 23 24 25 26 27 28 29 30 31 32 33 34 35 36
000
FTAK31 PAFA 302337
TAFAOT
TAF
PAOT 302337Z 3100/3124 12022KT 5SM BLSN OVC015
      TEMPO 3100/3103 3/4SM -SHSN BLSN VV008
     FM310300 12020KT 1SM -SHSN BLSN VV010
     FM311500 12015KT 2SM -SHSN BLSN OVC015=

USA.gov is the U.S. government's official web portal to all federal, state and local government web resources and services.